Time;durP1;ratioP1;P1;durP2;ratioP2;P2;SDS_P1;SDS_P2;PMS_P1;PMS_P2;Temp;Humidity;BMP_temperature;BMP_pressure;BME280_temperature;BME280_humidity;BME280_pressure;Samples;Min_cycle;Max_cycle;Signal;HPM_P1;HPM_P2
2021/09/19 00:00:38;;;;;;;;;9.25;6.25;;;;;23.94;48.22;100656.66;5077842;28;45875;-62
2021/09/19 00:03:03;;;;;;;;;9.75;8.00;;;;;23.94;48.05;100653.19;5078132;28;45750;-61
2021/09/19 00:05:29;;;;;;;;;6.00;6.00;;;;;23.94;48.34;100651.34;5077775;28;45670;-48
2021/09/19 00:07:54;;;;;;;;;8.00;7.50;;;;;23.94;47.83;100654.00;5078171;28;45478;-63
2021/09/19 00:10:19;;;;;;;;;6.50;6.50;;;;;23.94;48.28;100655.81;5077846;28;45368;-61
2021/09/19 00:12:45;;;;;;;;;7.25;7.25;;;;;23.92;48.14;100650.63;5077815;28;45916;-61
2021/09/19 00:15:15;;;;;;;;;7.25;6.75;;;;;23.94;48.37;100639.94;5059860;28;45546;-64
2021/09/19 00:17:42;;;;;;;;;6.75;5.00;;;;;23.94;48.35;100645.22;5077585;28;45696;-63
2021/09/19 00:20:09;;;;;;;;;6.00;6.00;;;;;23.93;47.91;100628.50;5077434;28;45818;-56
2021/09/19 00:22:35;;;;;;;;;7.25;7.25;;;;;23.95;48.61;100636.38;5059673;28;45799;-59
2021/09/19 00:25:01;;;;;;;;;7.00;7.00;;;;;23.94;47.90;100635.47;5077853;28;45430;-56
2021/09/19 00:27:26;;;;;;;;;7.25;7.25;;;;;23.94;48.61;100632.00;5059562;28;46083;-54
2021/09/19 00:29:51;;;;;;;;;7.25;7.25;;;;;23.92;47.99;100623.31;5077452;28;45201;-62
2021/09/19 00:32:17;;;;;;;;;8.00;8.00;;;;;23.94;48.62;100629.34;5077478;28;45177;-63
2021/09/19 00:34:42;;;;;;;;;7.75;6.50;;;;;23.94;48.50;100624.06;5077740;28;45328;-62
2021/09/19 00:37:08;;;;;;;;;5.75;5.50;;;;;23.92;48.57;100620.66;5077328;28;45418;-56
2021/09/19 00:39:34;;;;;;;;;8.25;8.25;;;;;23.90;48.50;100617.28;5077322;28;45532;-57
2021/09/19 00:41:59;;;;;;;;;7.75;6.50;;;;;23.92;48.51;100618.84;5077723;28;45456;-53
2021/09/19 00:44:27;;;;;;;;;6.25;6.25;;;;;23.91;48.32;100624.28;5077412;28;45433;-57
2021/09/19 00:46:53;;;;;;;;;5.50;5.50;;;;;23.93;48.35;100627.66;5077078;28;46435;-47
2021/09/19 00:49:19;;;;;;;;;6.75;6.00;;;;;23.92;48.67;100620.66;5077125;28;45671;-54
2021/09/19 00:51:44;;;;;;;;;8.25;6.00;;;;;23.94;48.52;100624.88;5077203;28;45394;-55
2021/09/19 00:54:10;;;;;;;;;5.25;5.25;;;;;23.93;48.54;100620.53;5077475;28;45362;-58
2021/09/19 00:56:38;;;;;;;;;8.50;7.00;;;;;23.92;48.67;100610.91;5076988;28;45726;-59
2021/09/19 00:59:04;;;;;;;;;6.00;6.00;;;;;23.92;48.18;100610.91;5076953;28;45394;-60
2021/09/19 01:01:30;;;;;;;;;6.00;6.00;;;;;23.93;48.08;100611.78;5077337;28;45387;-54
2021/09/19 01:03:56;;;;;;;;;6.75;5.25;;;;;23.93;48.54;100603.84;5077228;28;45405;-47
2021/09/19 01:06:21;;;;;;;;;8.00;8.00;;;;;23.92;48.11;100605.63;5076945;28;46033;-48
2021/09/19 01:08:47;;;;;;;;;5.50;5.50;;;;;23.92;48.32;100610.09;5076902;28;45433;-57
2021/09/19 01:11:15;;;;;;;;;8.50;6.00;;;;;23.93;48.60;100607.31;5076895;28;45259;-54
2021/09/19 01:13:42;;;;;;;;;8.00;8.00;;;;;23.92;48.12;100610.09;5077076;28;45173;-61
2021/09/19 01:16:10;;;;;;;;;7.75;7.00;;;;;23.92;48.42;100604.78;5076563;28;46153;-48
2021/09/19 01:18:37;;;;;;;;;5.25;5.25;;;;;23.92;48.58;100610.09;5076760;28;45441;-58
2021/09/19 01:21:02;;;;;;;;;5.25;5.25;;;;;23.89;48.76;100605.88;5058848;28;45382;-48
2021/09/19 01:23:29;;;;;;;;;6.00;5.25;;;;;23.92;48.45;100599.50;5077250;28;45639;-57
2021/09/19 01:25:54;;;;;;;;;6.00;6.00;;;;;23.92;48.26;100602.16;5076743;28;46360;-52
2021/09/19 01:28:20;;;;;;;;;7.25;7.25;;;;;23.92;48.37;100599.50;5076549;28;45284;-55
2021/09/19 01:30:45;;;;;;;;;6.00;6.00;;;;;23.92;48.00;100596.84;5076687;28;45178;-52
2021/09/19 01:33:11;;;;;;;;;5.00;5.00;;;;;23.92;48.51;100608.25;5076814;28;45170;-53
2021/09/19 01:35:36;;;;;;;;;8.50;7.25;;;;;23.92;48.75;100602.16;5076351;28;46676;-47
2021/09/19 01:38:02;;;;;;;;;6.25;6.25;;;;;23.92;48.42;100599.50;5076834;28;45340;-46
2021/09/19 01:40:29;;;;;;;;;7.00;6.25;;;;;23.92;48.37;100600.31;5076735;28;45224;-47
2021/09/19 01:42:55;;;;;;;;;5.50;5.50;;;;;23.91;48.38;100595.16;5076720;28;45555;-48
2021/09/19 01:45:21;;;;;;;;;6.75;6.75;;;;;23.92;48.74;100600.31;5076284;28;45411;-50
2021/09/19 01:47:46;;;;;;;;;10.50;8.00;;;;;23.91;48.87;100603.09;5076433;28;45502;-48
2021/09/19 01:50:12;;;;;;;;;8.50;7.50;;;;;23.90;48.56;100596.13;5076448;28;45432;-50
2021/09/19 01:52:37;;;;;;;;;9.00;6.75;;;;;23.90;48.57;100596.97;5076580;28;45503;-48
2021/09/19 01:55:04;;;;;;;;;6.25;4.50;;;;;23.91;48.54;100603.09;5076518;28;45883;-50
2021/09/19 01:57:29;;;;;;;;;8.00;6.00;;;;;23.91;48.43;100600.44;5076482;27;45645;-47
2021/09/19 01:59:56;;;;;;;;;6.50;6.25;;;;;23.92;48.89;100602.16;5079046;28;45252;-50
2021/09/19 02:02:21;;;;;;;;;6.00;6.00;;;;;23.90;48.88;100601.41;5080166;28;45573;-59
2021/09/19 02:04:51;;;;;;;;;6.25;6.25;;;;;23.90;48.94;100598.75;5079699;28;46439;-53
2021/09/19 02:07:17;;;;;;;;;6.00;6.00;;;;;23.90;48.59;100585.53;5079775;28;45804;-50
2021/09/19 02:09:42;;;;;;;;;6.75;6.25;;;;;23.90;48.41;100596.97;5079834;28;45409;-48
2021/09/19 02:12:07;;;;;;;;;6.00;6.00;;;;;23.89;49.18;100590.00;5079907;28;45414;-48
2021/09/19 02:14:33;;;;;;;;;5.50;5.50;;;;;23.89;48.51;100579.41;5079682;28;46182;-47
2021/09/19 02:16:59;;;;;;;;;7.25;5.00;;;;;23.87;48.61;100577.81;5079679;28;45343;-50
2021/09/19 02:19:24;;;;;;;;;9.50;8.00;;;;;23.89;48.77;100584.69;5079626;28;45256;-49
2021/09/19 02:21:50;;;;;;;;;5.75;5.75;;;;;23.88;48.71;100583.00;5079774;28;45223;-50
2021/09/19 02:24:15;;;;;;;;;6.50;6.00;;;;;23.90;48.55;100583.75;5079403;28;46617;-48
2021/09/19 02:26:41;;;;;;;;;8.00;7.25;;;;;23.91;49.23;100582.78;5061231;28;45495;-58
2021/09/19 02:29:06;;;;;;;;;7.00;7.00;;;;;23.90;48.51;100580.22;5079506;28;45265;-51
2021/09/19 02:31:31;;;;;;;;;6.25;6.25;;;;;23.89;49.04;100579.41;5079937;28;45256;-51
2021/09/19 02:33:58;;;;;;;;;9.00;8.00;;;;;23.89;48.98;100576.75;5079188;28;46412;-52
2021/09/19 02:36:24;;;;;;;;;7.50;7.50;;;;;23.89;48.64;100574.09;5079292;28;45324;-52
2021/09/19 02:38:49;;;;;;;;;8.00;7.50;;;;;23.89;48.65;100581.19;5079331;28;45398;-51
2021/09/19 02:41:15;;;;;;;;;8.75;8.75;;;;;23.89;48.86;100581.19;5079327;28;45497;-48
2021/09/19 02:43:40;;;;;;;;;7.75;7.00;;;;;23.88;48.82;100576.84;5078961;28;46282;-55
2021/09/19 02:46:05;;;;;;;;;9.75;8.75;;;;;23.88;48.95;100577.72;5079398;28;45323;-52
2021/09/19 02:48:31;;;;;;;;;7.75;7.75;;;;;23.89;49.15;100574.09;5079289;28;45380;-48
2021/09/19 02:50:56;;;;;;;;;8.50;8.00;;;;;23.89;48.96;100567.94;5079223;28;45293;-51
2021/09/19 02:53:21;;;;;;;;;9.25;9.25;;;;;23.89;48.95;100560.00;5078891;28;45452;-58
2021/09/19 02:55:47;;;;;;;;;6.00;6.00;;;;;23.88;49.08;100561.81;5079056;28;45403;-54
2021/09/19 02:58:12;;;;;;;;;8.00;7.75;;;;;23.89;48.99;100557.38;5078995;28;45787;-56
2021/09/19 03:00:38;;;;;;;;;7.75;7.75;;;;;23.86;49.23;100552.31;5079152;28;45450;-54
2021/09/19 03:03:03;;;;;;;;;8.00;6.00;;;;;23.89;49.03;100552.06;5079132;28;45380;-59
2021/09/19 03:05:29;;;;;;;;;7.25;7.25;;;;;23.89;49.26;100555.59;5078781;28;45339;-57
2021/09/19 03:07:55;;;;;;;;;9.00;8.50;;;;;23.88;48.77;100555.69;5078851;28;45360;-59
2021/09/19 03:10:21;;;;;;;;;7.75;7.75;;;;;23.86;49.46;100553.16;5077825;28;45455;-61
2021/09/19 03:12:47;;;;;;;;;7.00;7.00;;;;;23.87;49.22;100548.69;5078605;28;46436;-57
2021/09/19 03:15:12;;;;;;;;;6.75;6.75;;;;;23.86;49.25;100544.38;5078579;28;45312;-57
2021/09/19 03:17:38;;;;;;;;;7.25;7.25;;;;;23.87;49.21;100551.34;5061050;28;45544;-54
2021/09/19 03:20:07;;;;;;;;;8.25;6.25;;;;;23.87;49.39;100551.34;5079296;28;45432;-59
2021/09/19 03:22:33;;;;;;;;;8.25;8.25;;;;;23.86;49.20;100547.84;5078452;28;45571;-51
2021/09/19 03:24:58;;;;;;;;;7.75;7.75;;;;;23.86;49.31;100547.03;5078570;28;45379;-47
2021/09/19 03:27:23;;;;;;;;;7.00;7.00;;;;;23.86;49.32;100552.31;5078650;28;45293;-48
2021/09/19 03:29:49;;;;;;;;;7.50;7.50;;;;;23.84;49.05;100547.13;5078824;28;45236;-54
2021/09/19 03:32:14;;;;;;;;;9.25;7.50;;;;;23.84;49.25;100544.47;5078269;28;46593;-52
2021/09/19 03:34:39;;;;;;;;;7.00;7.00;;;;;23.84;49.04;100547.13;5078453;28;45324;-52
2021/09/19 03:37:05;;;;;;;;;8.00;8.00;;;;;23.85;49.65;100548.81;5078614;28;45356;-48
2021/09/19 03:39:30;;;;;;;;;7.25;7.00;;;;;23.85;49.33;100542.69;5078659;28;45502;-51
2021/09/19 03:41:56;;;;;;;;;8.75;8.75;;;;;23.85;49.21;100545.34;5077995;28;46402;-51
2021/09/19 03:44:21;;;;;;;;;9.00;8.00;;;;;23.84;48.92;100544.47;5078218;28;45170;-49
2021/09/19 03:46:46;;;;;;;;;9.50;9.50;;;;;23.85;48.83;100545.34;5078314;28;45306;-51
2021/09/19 03:49:12;;;;;;;;;10.50;9.25;;;;;23.84;48.95;100541.84;5078404;28;45431;-56
2021/09/19 03:51:37;;;;;;;;;8.00;8.00;;;;;23.86;49.04;100547.03;5077946;28;54924;-53
2021/09/19 03:54:03;;;;;;;;;9.25;9.00;;;;;23.84;49.21;100543.66;5077920;28;45378;-51
2021/09/19 03:56:29;;;;;;;;;7.25;7.25;;;;;23.84;49.57;100544.47;5078035;28;45438;-50
2021/09/19 03:58:55;;;;;;;;;8.75;8.75;;;;;23.85;49.42;100555.94;5078301;28;45401;-52
2021/09/19 04:01:20;;;;;;;;;13.50;7.75;;;;;23.85;49.38;100554.09;5077614;28;46739;-48
2021/09/19 04:03:46;;;;;;;;;10.25;9.00;;;;;23.85;49.16;100550.63;5077906;28;45406;-57
2021/09/19 04:06:11;;;;;;;;;9.75;9.75;;;;;23.85;49.37;100550.63;5059537;28;45842;-47
2021/09/19 04:08:36;;;;;;;;;8.75;8.00;;;;;23.84;49.60;100548.94;5078360;28;45387;-50
2021/09/19 04:11:02;;;;;;;;;8.75;7.75;;;;;23.85;49.50;100550.63;5077567;28;45413;-48
2021/09/19 04:13:27;;;;;;;;;8.25;7.00;;;;;23.84;49.33;100546.28;5077479;28;45341;-50
2021/09/19 04:15:53;;;;;;;;;9.25;9.25;;;;;23.84;49.23;100548.94;5077660;28;45386;-54
2021/09/19 04:18:18;;;;;;;;;11.75;8.00;;;;;23.83;49.26;100542.78;5093678;27;45356;-51
2021/09/19 04:20:45;;;;;;;;;8.25;8.25;;;;;23.83;49.28;100549.91;5077414;28;45300;-51
2021/09/19 04:23:11;;;;;;;;;8.25;8.25;;;;;23.84;49.49;100548.94;5077805;28;45678;-53
2021/09/19 04:25:36;;;;;;;;;9.75;9.75;;;;;23.83;49.20;100558.66;5077745;28;45297;-48
2021/09/19 04:28:02;;;;;;;;;10.50;9.00;;;;;23.83;49.51;100552.53;5077767;28;46077;-54
2021/09/19 04:30:27;;;;;;;;;8.75;8.75;;;;;23.83;49.60;100557.84;5077313;28;46351;-47
2021/09/19 04:32:53;;;;;;;;;10.50;9.50;;;;;23.82;49.26;100564.91;5077288;28;45372;-47
2021/09/19 04:35:18;;;;;;;;;7.75;7.00;;;;;23.81;49.25;100559.75;5077382;28;45527;-48
2021/09/19 04:37:44;;;;;;;;;8.00;6.50;;;;;23.81;49.52;100568.53;5059391;28;45372;-53
2021/09/19 04:40:09;;;;;;;;;8.50;8.50;;;;;23.78;49.44;100560.81;5077560;28;46075;-54
2021/09/19 04:42:35;;;;;;;;;11.25;10.00;;;;;23.81;49.42;100572.97;5077143;28;45393;-55
2021/09/19 04:45:00;;;;;;;;;9.50;9.50;;;;;23.80;49.10;100569.50;5077330;28;45939;-50
2021/09/19 04:47:26;;;;;;;;;9.00;8.25;;;;;23.79;49.16;100578.41;5077493;28;45367;-51
2021/09/19 04:49:51;;;;;;;;;9.00;9.00;;;;;23.79;49.44;100578.41;5077167;28;46529;-53
2021/09/19 04:52:17;;;;;;;;;9.25;9.25;;;;;23.78;48.92;100582.81;5076954;28;45349;-54
2021/09/19 04:54:42;;;;;;;;;8.25;8.25;;;;;23.78;49.07;100576.69;5077609;28;45347;-55
2021/09/19 04:57:07;;;;;;;;;8.75;8.25;;;;;23.78;48.70;100576.69;5077340;28;45352;-58
2021/09/19 04:59:33;;;;;;;;;10.00;10.00;;;;;23.77;48.67;100588.25;5076780;28;46143;-56
2021/09/19 05:01:59;;;;;;;;;10.00;9.00;;;;;23.76;48.82;100579.44;5077089;28;45292;-52
2021/09/19 05:04:24;;;;;;;;;12.25;10.25;;;;;23.76;48.80;100587.38;5077145;28;45263;-51
2021/09/19 05:06:50;;;;;;;;;9.00;9.00;;;;;23.76;48.50;100584.72;5077262;28;45578;-51
2021/09/19 05:09:15;;;;;;;;;11.00;9.75;;;;;23.74;48.62;100575.22;5076804;28;45613;-51
2021/09/19 05:11:40;;;;;;;;;9.25;9.25;;;;;23.73;48.40;100579.69;5077076;28;45252;-56
2021/09/19 05:14:06;;;;;;;;;10.50;10.00;;;;;23.71;48.04;100575.44;5076702;28;45330;-48
2021/09/19 05:16:31;;;;;;;;;9.75;9.75;;;;;23.74;48.32;100581.38;5077066;28;45591;-54
2021/09/19 05:18:57;;;;;;;;;10.75;9.25;;;;;23.73;48.02;100577.03;5076513;28;47197;-53
2021/09/19 05:21:23;;;;;;;;;8.00;8.00;;;;;23.73;48.54;100574.41;5076775;28;45243;-57
2021/09/19 05:23:48;;;;;;;;;8.50;8.50;;;;;23.72;47.91;100574.50;5076847;28;45312;-56
2021/09/19 05:26:14;;;;;;;;;10.25;10.25;;;;;23.72;48.21;100578.00;5077164;28;45547;-55
2021/09/19 05:28:39;;;;;;;;;11.00;11.00;;;;;23.72;48.10;100585.94;5076491;28;46316;-61
2021/09/19 05:31:05;;;;;;;;;10.50;9.50;;;;;23.71;48.23;100576.31;5076396;28;45395;-64
2021/09/19 05:33:30;;;;;;;;;10.00;9.50;;;;;23.71;48.08;100576.31;5075703;28;45418;-60
2021/09/19 05:35:55;;;;;;;;;10.75;9.00;;;;;23.70;47.56;100579.91;5076803;28;45328;-61
2021/09/19 05:38:21;;;;;;;;;9.75;9.75;;;;;23.68;47.67;100581.81;5076455;28;46298;-64
2021/09/19 05:40:46;;;;;;;;;9.25;8.50;;;;;23.70;47.96;100585.19;5076462;28;45409;-52
2021/09/19 05:43:12;;;;;;;;;12.00;11.00;;;;;23.71;47.62;100589.53;5076988;28;45325;-55
2021/09/19 05:45:37;;;;;;;;;8.25;8.25;;;;;23.69;47.63;100587.97;5076810;28;45427;-61
2021/09/19 05:48:03;;;;;;;;;9.50;9.50;;;;;23.69;47.27;100595.91;5076313;28;45399;-47
2021/09/19 05:50:28;;;;;;;;;10.50;10.50;;;;;23.69;47.44;100599.38;5076214;28;45422;-48
2021/09/19 05:52:54;;;;;;;;;10.25;10.25;;;;;23.70;47.40;100600.25;5076349;28;45514;-47
2021/09/19 05:55:19;;;;;;;;;11.25;10.75;;;;;23.67;47.02;100603.94;5076541;28;45314;-51
2021/09/19 05:57:45;;;;;;;;;11.00;8.25;;;;;23.69;47.02;100614.41;5076458;28;46564;-57
2021/09/19 06:00:11;;;;;;;;;10.25;9.50;;;;;23.67;47.01;100609.22;5076117;28;45175;-49
2021/09/19 06:02:36;;;;;;;;;8.25;8.25;;;;;23.67;47.41;100611.88;5076393;28;45189;-54
2021/09/19 06:05:03;;;;;;;;;13.00;11.00;;;;;23.68;46.96;100607.44;5076459;28;45331;-48
2021/09/19 06:07:28;;;;;;;;;13.75;11.50;;;;;23.67;46.96;100614.50;5076064;28;45469;-51
2021/09/19 06:09:53;;;;;;;;;9.00;9.00;;;;;23.68;47.28;100620.66;5057844;28;45708;-51
2021/09/19 06:12:19;;;;;;;;;11.25;10.00;;;;;23.66;47.28;100620.75;5076040;28;45379;-52
2021/09/19 06:14:44;;;;;;;;;9.75;8.75;;;;;23.66;46.90;100623.41;5076566;28;45437;-47
2021/09/19 06:17:10;;;;;;;;;9.75;9.75;;;;;23.65;46.56;100618.22;5057572;28;47102;-49
2021/09/19 06:19:36;;;;;;;;;11.00;10.00;;;;;23.67;46.73;100622.44;5075887;28;45421;-50
2021/09/19 06:22:02;;;;;;;;;11.00;11.00;;;;;23.67;46.83;100611.88;5076174;28;45426;-47
2021/09/19 06:24:28;;;;;;;;;12.00;11.25;;;;;23.66;46.91;100618.13;5076019;28;45450;-53
2021/09/19 06:26:56;;;;;;;;;9.75;9.75;;;;;23.66;46.75;100626.06;5075873;28;46412;-55
2021/09/19 06:29:21;;;;;;;;;9.50;9.50;;;;;23.65;46.87;100628.81;5075753;28;45323;-48
2021/09/19 06:31:46;;;;;;;;;9.00;7.25;;;;;23.63;46.62;100626.28;5076281;28;45244;-48
2021/09/19 06:34:12;;;;;;;;;11.00;10.00;;;;;23.66;46.56;100626.06;5076147;28;45225;-51
2021/09/19 06:36:38;;;;;;;;;11.00;11.00;;;;;23.66;46.38;100622.56;5075600;28;45253;-49
2021/09/19 06:39:03;;;;;;;;;12.75;11.75;;;;;23.66;46.39;100627.88;5075713;28;45363;-51
2021/09/19 06:41:28;;;;;;;;;10.50;10.50;;;;;23.66;46.65;100626.06;5057687;28;45441;-49
2021/09/19 06:43:54;;;;;;;;;10.25;10.25;;;;;23.66;46.91;100615.47;5075955;28;45700;-56
2021/09/19 06:46:19;;;;;;;;;11.25;11.25;;;;;23.66;46.82;100623.41;5094729;27;46956;-51
2021/09/19 06:48:44;;;;;;;;;10.50;10.50;;;;;23.66;46.44;100620.75;5079393;28;45382;-48
2021/09/19 06:51:10;;;;;;;;;11.25;11.25;;;;;23.64;46.62;100617.41;5079212;28;45454;-48
2021/09/19 06:53:37;;;;;;;;;11.00;9.75;;;;;23.65;46.66;100621.72;5079139;28;45249;-51
2021/09/19 06:56:06;;;;;;;;;10.50;9.00;;;;;23.67;46.33;100629.56;5078696;28;47176;-49
2021/09/19 06:58:32;;;;;;;;;9.75;9.75;;;;;23.68;46.37;100647.13;5078786;28;45772;-51
2021/09/19 07:00:58;;;;;;;;;9.75;9.50;;;;;23.67;45.86;100640.97;5078890;28;45361;-57
2021/09/19 07:03:23;;;;;;;;;11.50;10.00;;;;;23.67;46.18;100638.31;5079203;28;45325;-49
2021/09/19 07:05:48;;;;;;;;;13.00;11.00;;;;;23.67;46.24;100642.78;5079080;28;45687;-51
2021/09/19 07:08:14;;;;;;;;;11.75;11.25;;;;;23.68;46.28;100647.13;5078746;28;45381;-48
2021/09/19 07:10:43;;;;;;;;;9.25;9.25;;;;;23.68;46.06;100650.59;5078938;28;45407;-52
2021/09/19 07:13:14;;;;;;;;;11.50;11.50;;;;;23.67;46.03;100648.91;5079202;28;45287;-54
2021/09/19 07:15:43;;;;;;;;;10.25;10.25;;;;;23.70;46.15;100650.50;5078498;28;45422;-47
2021/09/19 07:18:09;;;;;;;;;10.50;10.50;;;;;23.69;45.84;100649.66;5078538;28;45740;-49
2021/09/19 07:20:35;;;;;;;;;10.00;10.00;;;;;23.67;46.31;100654.19;5078595;28;45229;-46
2021/09/19 07:23:00;;;;;;;;;11.00;11.00;;;;;23.68;45.77;100655.91;5078796;28;45216;-48
2021/09/19 07:25:25;;;;;;;;;10.50;10.50;;;;;23.69;46.21;100662.88;5077984;28;58665;-49
2021/09/19 07:27:51;;;;;;;;;9.75;9.75;;;;;23.69;46.02;100662.03;5078556;28;45395;-46
2021/09/19 07:30:16;;;;;;;;;13.25;10.50;;;;;23.68;45.75;100666.47;5078829;28;45351;-48
2021/09/19 07:32:42;;;;;;;;;13.75;13.75;;;;;23.69;45.63;100670.81;5078450;28;45281;-53
2021/09/19 07:35:08;;;;;;;;;13.75;11.25;;;;;23.69;46.11;100667.34;5078250;28;46278;-48
2021/09/19 07:37:33;;;;;;;;;11.25;11.25;;;;;23.69;46.13;100677.91;5060054;28;46250;-51
2021/09/19 07:39:59;;;;;;;;;9.00;9.00;;;;;23.68;45.82;100674.41;5078465;28;45433;-50
2021/09/19 07:42:25;;;;;;;;;9.50;9.50;;;;;23.69;45.42;100677.91;5078498;28;45379;-54
2021/09/19 07:44:50;;;;;;;;;12.50;11.00;;;;;23.68;45.40;100682.34;5078433;28;46445;-46
2021/09/19 07:47:16;;;;;;;;;11.75;11.75;;;;;23.69;45.27;100683.22;5078173;28;45287;-54
2021/09/19 07:49:42;;;;;;;;;10.50;9.00;;;;;23.69;45.76;100691.16;5078185;28;45340;-46
2021/09/19 07:52:08;;;;;;;;;13.75;12.00;;;;;23.71;46.02;100686.56;5078074;28;45593;-53
2021/09/19 07:54:34;;;;;;;;;9.75;9.25;;;;;23.72;45.89;100691.78;5078158;27;45518;-56
2021/09/19 07:57:00;;;;;;;;;12.25;11.75;;;;;23.70;45.52;100687.56;5077428;28;45185;-58
2021/09/19 07:59:25;;;;;;;;;9.25;9.25;;;;;23.71;45.63;100692.72;5077960;28;45382;-56
2021/09/19 08:01:51;;;;;;;;;13.25;12.75;;;;;23.73;45.53;100696.13;5078614;28;45426;-55
2021/09/19 08:04:16;;;;;;;;;11.50;11.00;;;;;23.73;45.45;100700.53;5077852;28;45374;-60
2021/09/19 08:06:41;;;;;;;;;11.25;11.25;;;;;23.74;45.37;100707.53;5077554;28;45281;-50
2021/09/19 08:09:06;;;;;;;;;11.50;9.75;;;;;23.73;45.93;100706.69;5078019;28;45323;-57
2021/09/19 08:11:33;;;;;;;;;11.00;9.75;;;;;23.75;45.36;100709.22;5077994;28;45701;-57
2021/09/19 08:14:07;;;;;;;;;11.25;10.00;;;;;23.75;45.40;100714.53;5077476;28;45806;-48
2021/09/19 08:16:38;;;;;;;;;9.50;9.50;;;;;23.75;45.81;100707.44;5077704;28;45272;-46
2021/09/19 08:19:04;;;;;;;;;15.75;11.25;;;;;23.76;45.46;100709.09;5077906;28;45349;-49
2021/09/19 08:21:30;;;;;;;;;11.50;10.25;;;;;23.76;45.59;100710.91;5077959;28;45594;-52
2021/09/19 08:23:55;;;;;;;;;10.50;10.50;;;;;23.77;45.27;100713.44;5077530;28;46602;-51
2021/09/19 08:26:21;;;;;;;;;11.25;11.25;;;;;23.77;45.27;100712.63;5077879;28;45237;-49
2021/09/19 08:28:46;;;;;;;;;11.00;11.00;;;;;23.77;45.40;100713.44;5077652;28;45236;-48
2021/09/19 08:31:11;;;;;;;;;13.25;10.25;;;;;23.79;45.07;100721.28;5077753;28;45231;-51
2021/09/19 08:33:37;;;;;;;;;11.00;11.00;;;;;23.81;45.50;100718.53;5077166;28;45473;-53
2021/09/19 08:36:02;;;;;;;;;10.00;10.00;;;;;23.81;45.12;100724.69;5077348;28;45234;-50
2021/09/19 08:38:28;;;;;;;;;11.50;11.50;;;;;23.81;45.45;100721.16;5042674;28;45361;-53
2021/09/19 08:40:53;;;;;;;;;10.75;10.75;;;;;23.85;45.54;100730.59;5077898;28;45363;-51
2021/09/19 08:43:19;;;;;;;;;11.25;11.25;;;;;23.85;45.15;100730.59;5077260;28;46483;-47
2021/09/19 08:45:47;;;;;;;;;9.50;9.00;;;;;23.85;45.46;100741.19;5077391;28;45355;-49
2021/09/19 08:48:15;;;;;;;;;8.75;8.75;;;;;23.86;45.28;100743.72;5077242;28;45376;-60
2021/09/19 08:50:40;;;;;;;;;11.75;11.75;;;;;23.85;45.34;100742.00;5077628;28;45281;-54
2021/09/19 08:53:05;;;;;;;;;10.25;10.25;;;;;23.87;45.15;100744.53;5077010;28;46301;-52
2021/09/19 08:55:31;;;;;;;;;8.75;8.75;;;;;23.87;45.30;100739.25;5076959;28;45255;-47
2021/09/19 08:57:56;;;;;;;;;11.00;11.00;;;;;23.88;45.08;100741.81;5077186;28;45220;-47
2021/09/19 09:00:22;;;;;;;;;13.50;11.50;;;;;23.89;45.03;100737.34;5077544;28;45465;-50
2021/09/19 09:02:50;;;;;;;;;12.00;9.75;;;;;23.89;45.26;100745.28;5076938;28;45993;-48
2021/09/19 09:05:28;;;;;;;;;11.25;11.25;;;;;23.90;45.25;100749.63;5076876;28;45738;-49
2021/09/19 09:07:56;;;;;;;;;10.00;10.00;;;;;23.90;45.02;100744.34;5076082;28;45207;-46
2021/09/19 09:10:43;;;;;;;;;13.00;11.50;;;;;23.90;45.07;100760.22;5077454;28;45526;-47
2021/09/19 09:13:15;;;;;;;;;9.50;9.00;;;;;23.89;45.38;100758.53;5076694;28;45411;-51
2021/09/19 09:16:00;;;;;;;;;12.00;11.00;;;;;23.90;44.96;100760.22;5058485;28;45718;-50
2021/09/19 09:18:30;;;;;;;;;14.50;10.50;;;;;23.88;45.53;100764.75;5077303;28;45293;-49
2021/09/19 09:20:59;;;;;;;;;9.50;9.25;;;;;23.87;45.36;100771.00;5059084;28;45395;-47
2021/09/19 09:23:26;;;;;;;;;10.75;10.75;;;;;23.89;45.47;100777.03;5058711;28;48071;-48
2021/09/19 09:26:26;;;;;;;;;9.75;8.00;;;;;23.89;45.41;100771.75;5058393;28;45907;-50
2021/09/19 09:29:01;;;;;;;;;11.00;11.00;;;;;23.88;45.53;100778.00;5076282;28;45524;-51
2021/09/19 09:31:41;;;;;;;;;11.75;10.50;;;;;23.88;45.53;100783.28;5077096;28;45631;-47
2021/09/19 09:34:06;;;;;;;;;13.00;13.00;;;;;23.89;45.34;100779.69;5076275;28;46614;-47
2021/09/19 09:36:40;;;;;;;;;14.00;12.50;;;;;23.88;45.26;100785.94;5076602;28;45423;-47
2021/09/19 09:39:21;;;;;;;;;10.50;10.50;;;;;23.88;45.20;100789.44;5076680;28;45321;-47
2021/09/19 09:41:46;;;;;;;;;9.75;9.75;;;;;23.89;45.59;100785.84;5076722;28;45522;-49
2021/09/19 09:44:28;;;;;;;;;12.25;10.25;;;;;23.89;45.53;100785.84;5076304;28;46355;-49
2021/09/19 09:46:54;;;;;;;;;10.00;8.50;;;;;23.88;45.54;100781.50;5076279;28;45488;-48
2021/09/19 09:49:22;;;;;;;;;11.75;11.00;;;;;23.88;45.17;100778.00;5076446;28;45335;-48
2021/09/19 09:51:48;;;;;;;;;12.25;12.25;;;;;23.89;45.09;100782.34;5076718;27;45896;-49
2021/09/19 09:54:15;;;;;;;;;11.25;10.00;;;;;23.89;45.54;100785.84;5076370;28;45870;-48
2021/09/19 09:56:44;;;;;;;;;11.00;11.00;;;;;23.90;45.47;100789.34;5076210;28;45359;-54
2021/09/19 09:59:11;;;;;;;;;14.00;11.00;;;;;23.89;45.52;100788.50;5076187;28;45468;-50
2021/09/19 10:01:39;;;;;;;;;12.50;11.00;;;;;23.89;45.33;100785.84;5076653;28;45339;-50
2021/09/19 10:04:05;;;;;;;;;10.25;10.25;;;;;23.91;45.01;100788.38;5076098;28;45671;-50
2021/09/19 10:06:31;;;;;;;;;13.25;12.50;;;;;23.92;45.56;100798.00;5057889;28;45332;-48
2021/09/19 10:08:57;;;;;;;;;11.50;11.00;;;;;23.92;45.36;100798.00;5076637;28;45320;-49
2021/09/19 10:11:22;;;;;;;;;13.25;11.75;;;;;23.92;45.30;100801.50;5076440;28;45596;-53
2021/09/19 10:13:49;;;;;;;;;13.50;10.25;;;;;23.93;45.03;100797.06;5075896;28;46286;-47
2021/09/19 10:16:16;;;;;;;;;10.25;10.25;;;;;23.91;44.88;100798.97;5075982;28;45864;-56
2021/09/19 10:18:48;;;;;;;;;11.25;10.50;;;;;23.92;45.08;100801.50;5076085;28;45335;-59
2021/09/19 10:21:17;;;;;;;;;9.00;9.00;;;;;23.91;44.88;100799.81;5079786;28;45403;-51
2021/09/19 10:23:44;;;;;;;;;12.50;11.00;;;;;23.91;45.52;100802.47;5079373;28;46174;-61
2021/09/19 10:26:12;;;;;;;;;12.25;10.00;;;;;23.92;44.79;100801.50;5079260;28;45254;-60
2021/09/19 10:28:45;;;;;;;;;10.00;9.00;;;;;23.93;45.07;100799.72;5061335;28;45269;-59
2021/09/19 10:31:19;;;;;;;;;12.00;10.00;;;;;23.93;45.24;100797.06;5079671;28;45821;-64
2021/09/19 10:33:50;;;;;;;;;11.00;11.00;;;;;23.94;45.19;100798.75;5079096;28;47188;-63
2021/09/19 10:36:16;;;;;;;;;12.75;10.00;;;;;23.93;45.40;100797.06;5079261;28;45438;-61
2021/09/19 10:38:41;;;;;;;;;12.67;12.00;;;;;23.93;45.22;100789.97;5079372;28;45336;-52
2021/09/19 10:41:21;;;;;;;;;10.00;9.00;;;;;23.92;45.44;100784.78;5079454;28;45569;-57
2021/09/19 10:44:01;;;;;;;;;9.50;9.00;;;;;23.92;45.40;100785.63;5079107;28;45428;-46
2021/09/19 10:46:35;;;;;;;;;9.50;9.50;;;;;23.96;45.03;100791.59;5079572;28;45378;-48
2021/09/19 10:49:17;;;;;;;;;9.50;9.50;;;;;23.96;45.10;100798.66;5079522;28;45391;-50
2021/09/19 10:52:00;;;;;;;;;13.50;11.00;;;;;23.97;45.27;100803.00;5079188;28;45256;-49
2021/09/19 10:54:49;;;;;;;;;12.75;11.00;;;;;23.96;45.43;100804.81;5078902;28;46744;-47
2021/09/19 10:57:22;;;;;;;;;10.75;10.25;;;;;23.96;45.21;100796.88;5079054;28;46003;-53
2021/09/19 11:00:29;;;;;;;;;13.50;12.75;;;;;23.97;44.98;100795.06;5078950;28;45443;-60
2021/09/19 11:03:13;;;;;;;;;11.00;11.00;;;;;23.97;45.22;100797.72;5036599;28;45446;-56
2021/09/19 11:05:43;;;;;;;;;12.50;11.50;;;;;23.98;45.27;100794.94;5036045;28;45464;-48
2021/09/19 11:08:09;;;;;;;;;11.75;11.50;;;;;23.97;45.31;100793.28;5063381;28;45357;-54
2021/09/19 11:10:59;;;;;;;;;12.33;11.00;;;;;23.97;45.18;100787.13;5060662;28;45262;-50
2021/09/19 11:13:31;;;;;;;;;12.25;11.25;;;;;23.99;45.65;100788.72;5073295;27;45544;-49
2021/09/19 11:16:03;;;;;;;;;13.50;13.00;;;;;24.01;45.50;100799.22;5078621;28;46632;-53
2021/09/19 11:18:30;;;;;;;;;12.25;11.00;;;;;24.01;45.42;100799.22;5078898;28;45773;-55